Main page
METAR-TAF:

METAR-TAF

Airports :

Oulu Airport

Oulu, Finland

latitude: 64-56N, longitude: 025-22E, elevation: 12 m

Current weather observation

The report was made 21 minutes ago, at 13:20 UTC
Wind 4 kt from the East/Southeast
Temperature -4°C
Humidity 54%
Pressure 1003 hPa
Visibility 10 km or more
no clouds below 1500 m and no cumulonimbus

METAR: EFOU 281320Z AUTO 12004KT CAVOK M04/M12 Q1003

Time: 15:41 (13:41 UTC)

Forecast

The report was made 2 hours and 10 minutes ago, at 11:31 UTC
Forecast valid from 28 at 12 UTC to 29 at 12 UTC
Wind 4 kt from the East
Visibility 10 km or more
no clouds below 1500 m and no cumulonimbus

TAF: EFOU 281131Z 2812/2912 10004KT CAVOK

Weather observations and forecasts of more than 4000 airports (METAR and TAF reports).

The available stations are represented by yellow and red dots on the map.

Hover mouse over dot to see the name of the station.

Then click to see weather observations and forecasts.

To change the map : click on the green buttons with a black cross to zoom in, on the green button with a dash to zoom out, or on the green arrows for adjacent maps.


METAR-TAF: